createdAt,value
2023-04-27T00:01:20.443Z,100.00
2023-04-27T00:03:47.346Z,100.00
2023-04-27T00:06:17.362Z,100.00
2023-04-27T00:08:43.857Z,100.00
2023-04-27T00:11:10.234Z,100.00
2023-04-27T00:13:39.768Z,100.00
2023-04-27T00:16:09.049Z,100.00
2023-04-27T00:18:35.538Z,100.00
2023-04-27T00:21:06.586Z,100.00
2023-04-27T00:23:32.896Z,100.00
2023-04-27T00:25:59.282Z,100.00
2023-04-27T00:28:29.835Z,100.00
2023-04-27T00:30:58.902Z,100.00
2023-04-27T00:33:29.591Z,100.00
2023-04-27T00:36:00.858Z,100.00
2023-04-27T00:38:30.909Z,100.00
2023-04-27T00:41:04.671Z,100.00
2023-04-27T00:43:31.595Z,100.00
2023-04-27T00:45:59.343Z,100.00
2023-04-27T00:48:29.060Z,100.00
2023-04-27T00:50:58.386Z,100.00
2023-04-27T00:53:25.371Z,100.00
2023-04-27T00:55:58.011Z,100.00
2023-04-27T00:58:27.854Z,100.00
2023-04-27T01:00:54.332Z,100.00
2023-04-27T01:03:21.139Z,100.00
2023-04-27T01:05:51.022Z,100.00
2023-04-27T01:08:20.331Z,100.00
2023-04-27T01:10:54.450Z,100.00
2023-04-27T01:13:20.827Z,100.00
2023-04-27T01:15:47.219Z,100.00
2023-04-27T01:18:19.803Z,100.00
2023-04-27T01:20:50.129Z,100.00
2023-04-27T01:23:21.929Z,100.00
2023-04-27T01:25:48.426Z,100.00
2023-04-27T01:28:14.786Z,100.00
2023-04-27T01:30:49.708Z,100.00
2023-04-27T01:33:16.386Z,100.00
2023-04-27T01:35:43.091Z,100.00
2023-04-27T01:38:09.739Z,100.00
2023-04-27T01:40:39.306Z,100.00
2023-04-27T01:43:08.496Z,100.00
2023-04-27T01:45:34.919Z,100.00
2023-04-27T01:48:01.540Z,100.00
2023-04-27T01:50:28.002Z,100.00
2023-04-27T01:52:57.570Z,100.00
2023-04-27T01:55:26.765Z,100.00
2023-04-27T01:57:53.083Z,100.00
2023-04-27T02:00:22.696Z,100.00
2023-04-27T02:02:51.182Z,100.00
2023-04-27T02:05:20.202Z,100.00
2023-04-27T02:07:52.414Z,100.00
2023-04-27T02:10:18.844Z,100.00
2023-04-27T02:12:49.282Z,100.00
2023-04-27T02:15:18.469Z,100.00
2023-04-27T02:17:45.577Z,100.00
2023-04-27T02:20:22.417Z,100.00
2023-04-27T02:22:50.146Z,100.00
2023-04-27T02:25:16.951Z,100.00
2023-04-27T02:27:43.565Z,100.00
2023-04-27T02:32:59.599Z,100.00
2023-04-27T02:35:29.041Z,100.00
2023-04-27T02:37:55.474Z,100.00
2023-04-27T02:40:31.344Z,100.00
2023-04-27T02:42:57.702Z,100.00
2023-04-27T02:45:29.839Z,100.00
2023-04-27T02:48:00.398Z,100.00
2023-04-27T02:50:40.089Z,100.00
2023-04-27T02:53:06.999Z,100.00
2023-04-27T02:55:34.322Z,100.00
2023-04-27T02:58:00.881Z,100.00
2023-04-27T03:00:27.374Z,100.00
2023-04-27T03:02:58.226Z,100.00
2023-04-27T03:05:29.002Z,100.00
2023-04-27T03:07:56.018Z,100.00
2023-04-27T03:10:28.784Z,100.00
2023-04-27T03:12:56.029Z,100.00
2023-04-27T03:15:31.234Z,100.00
2023-04-27T03:17:57.666Z,100.00
2023-04-27T03:20:29.503Z,100.00
2023-04-27T03:22:59.654Z,100.00
2023-04-27T03:25:29.484Z,100.00
2023-04-27T03:27:58.624Z,100.00
2023-04-27T03:30:25.022Z,100.00
2023-04-27T03:32:51.462Z,100.00
2023-04-27T03:35:17.953Z,100.00
2023-04-27T03:37:45.957Z,100.00
2023-04-27T03:40:16.443Z,100.00
2023-04-27T03:42:45.429Z,100.00
2023-04-27T03:45:12.184Z,100.00
2023-04-27T03:47:44.773Z,100.00
2023-04-27T03:50:11.345Z,100.00
2023-04-27T03:52:37.725Z,100.00
2023-04-27T03:55:09.350Z,100.00
2023-04-27T03:57:35.945Z,100.00
2023-04-27T04:00:02.299Z,100.00
2023-04-27T04:02:31.933Z,100.00
2023-04-27T04:05:01.545Z,100.00
2023-04-27T04:07:28.968Z,100.00
2023-04-27T04:10:05.532Z,100.00
2023-04-27T04:12:32.344Z,100.00
2023-04-27T04:14:59.140Z,100.00
2023-04-27T04:17:28.344Z,100.00
2023-04-27T04:19:57.339Z,100.00
2023-04-27T04:22:24.905Z,100.00
2023-04-27T04:24:51.396Z,100.00
2023-04-27T04:27:17.846Z,100.00
2023-04-27T04:29:48.153Z,100.00
2023-04-27T04:32:17.757Z,100.00
2023-04-27T04:34:51.687Z,100.00
2023-04-27T04:37:20.721Z,100.00
2023-04-27T04:39:50.325Z,100.00
2023-04-27T04:42:19.294Z,100.00
2023-04-27T04:44:45.736Z,100.00
2023-04-27T04:47:16.335Z,100.00
2023-04-27T04:49:45.626Z,100.00
2023-04-27T04:52:12.004Z,100.00
2023-04-27T04:54:42.347Z,98.47
2023-04-27T04:57:11.671Z,97.32
2023-04-27T04:59:44.504Z,96.55
2023-04-27T05:02:13.789Z,95.84
2023-04-27T05:04:42.520Z,95.23
2023-04-27T05:07:16.087Z,95.03
2023-04-27T05:09:48.882Z,94.04
2023-04-27T05:12:18.427Z,90.35
2023-04-27T05:14:44.824Z,86.18
2023-04-27T05:17:11.690Z,78.24
2023-04-27T05:19:45.375Z,72.49
2023-04-27T05:22:14.796Z,68.15
2023-04-27T05:24:48.353Z,64.51
2023-04-27T05:32:43.921Z,58.25
2023-04-27T05:35:13.451Z,57.87
2023-04-27T05:40:29.354Z,55.25
2023-04-27T05:42:55.782Z,53.34
2023-04-27T05:45:22.503Z,51.66
2023-04-27T05:47:52.982Z,50.65
2023-04-27T05:50:19.480Z,50.75
2023-04-27T05:52:46.298Z,51.27
2023-04-27T05:55:21.097Z,50.54
2023-04-27T05:57:54.473Z,48.76
2023-04-27T06:00:34.262Z,47.58
2023-04-27T06:03:00.996Z,48.53
2023-04-27T06:05:30.695Z,47.67
2023-04-27T06:10:46.064Z,48.32
2023-04-27T06:13:12.445Z,48.47
2023-04-27T06:15:38.876Z,52.50
2023-04-27T06:18:10.001Z,56.22
2023-04-27T06:20:39.528Z,59.24
2023-04-27T06:23:10.566Z,60.60
2023-04-27T06:25:40.539Z,61.50
2023-04-27T06:28:06.907Z,62.96
2023-04-27T06:30:37.488Z,63.81
2023-04-27T06:33:04.677Z,64.98
2023-04-27T06:35:31.531Z,65.41
2023-04-27T06:38:01.384Z,66.33
2023-04-27T06:40:30.537Z,66.85
2023-04-27T06:42:59.665Z,66.99
2023-04-27T06:45:26.111Z,67.23
2023-04-27T06:47:52.571Z,67.02
2023-04-27T06:50:19.099Z,67.86
2023-04-27T06:52:48.746Z,67.69
2023-04-27T06:55:18.473Z,67.50
2023-04-27T06:57:45.108Z,67.46
2023-04-27T07:00:18.157Z,67.20
2023-04-27T07:02:44.766Z,65.77
2023-04-27T07:05:11.228Z,65.99
2023-04-27T07:07:38.363Z,65.69
2023-04-27T07:10:08.254Z,65.63
2023-04-27T07:12:40.699Z,65.57
2023-04-27T07:15:10.696Z,64.50
2023-04-27T07:17:44.544Z,64.43
2023-04-27T07:20:11.328Z,64.14
2023-04-27T07:22:37.795Z,63.17
2023-04-27T07:25:08.849Z,62.83
2023-04-27T07:27:35.984Z,62.78
2023-04-27T07:30:03.097Z,62.22
2023-04-27T07:32:41.306Z,61.71
2023-04-27T07:35:12.088Z,60.57
2023-04-27T07:37:41.578Z,60.01
2023-04-27T07:40:16.660Z,59.29
2023-04-27T07:42:46.453Z,58.65
2023-04-27T07:45:12.983Z,58.73
2023-04-27T07:47:47.418Z,57.82
2023-04-27T07:50:31.399Z,57.05
2023-04-27T07:53:01.698Z,56.68
2023-04-27T07:55:32.634Z,56.71
2023-04-27T07:58:01.549Z,56.12
2023-04-27T08:00:34.939Z,55.78
2023-04-27T08:03:02.219Z,55.83
2023-04-27T08:07:58.569Z,55.17
2023-04-27T08:10:25.203Z,55.22
2023-04-27T08:12:54.659Z,55.00
2023-04-27T08:15:24.279Z,55.07
2023-04-27T08:17:50.773Z,54.05
2023-04-27T08:20:20.770Z,53.83
2023-04-27T08:22:47.184Z,53.61
2023-04-27T08:25:13.549Z,53.04
2023-04-27T08:27:44.172Z,53.35
2023-04-27T08:30:13.815Z,51.88
2023-04-27T08:32:48.102Z,52.18
2023-04-27T08:35:14.719Z,50.91
2023-04-27T08:37:41.166Z,50.79
2023-04-27T08:40:11.298Z,50.41
2023-04-27T08:42:53.148Z,50.98
2023-04-27T08:45:20.312Z,50.98
2023-04-27T08:47:46.745Z,50.79
2023-04-27T08:52:59.843Z,49.95
2023-04-27T08:55:26.423Z,49.11
2023-04-27T08:58:01.398Z,47.74
2023-04-27T09:00:47.501Z,48.01
2023-04-27T09:03:25.651Z,49.21
2023-04-27T09:06:03.819Z,49.08
2023-04-27T09:08:53.143Z,49.25
2023-04-27T09:11:54.927Z,49.29
2023-04-27T09:14:23.093Z,47.12
2023-04-27T09:16:59.947Z,48.88
2023-04-27T09:19:33.557Z,46.52
2023-04-27T09:22:14.101Z,47.03
2023-04-27T09:25:01.240Z,47.10
2023-04-27T09:27:27.621Z,46.52
2023-04-27T09:29:58.235Z,46.40
2023-04-27T09:32:27.838Z,46.48
2023-04-27T09:34:54.202Z,45.23
2023-04-27T09:37:24.274Z,46.19
2023-04-27T09:39:53.524Z,45.42
2023-04-27T09:42:24.238Z,44.54
2023-04-27T09:44:54.214Z,45.21
2023-04-27T09:47:20.862Z,46.15
2023-04-27T09:52:33.622Z,43.96
2023-04-27T09:55:01.245Z,43.75
2023-04-27T09:57:40.507Z,42.50
2023-04-27T10:00:32.321Z,43.90
2023-04-27T10:03:36.655Z,44.95
2023-04-27T10:06:17.522Z,44.07
2023-04-27T10:08:48.804Z,43.59
2023-04-27T10:11:23.225Z,43.60
2023-04-27T10:13:54.874Z,43.53
2023-04-27T10:19:17.140Z,42.98
2023-04-27T10:22:04.650Z,42.73
2023-04-27T10:24:42.688Z,43.32
2023-04-27T10:27:20.091Z,42.96
2023-04-27T10:29:54.304Z,41.59
2023-04-27T10:32:25.410Z,42.11
2023-04-27T10:35:07.498Z,41.73
2023-04-27T10:37:44.747Z,44.03
2023-04-27T10:40:21.777Z,44.35
2023-04-27T10:42:51.790Z,42.50
2023-04-27T10:45:31.725Z,42.89
2023-04-27T10:48:03.413Z,41.80
2023-04-27T10:50:33.013Z,43.22
2023-04-27T10:53:04.857Z,40.89
2023-04-27T10:55:35.551Z,41.63
2023-04-27T10:58:02.807Z,41.53
2023-04-27T11:00:31.789Z,41.00
2023-04-27T11:03:19.874Z,41.40
2023-04-27T11:05:57.646Z,41.05
2023-04-27T11:08:25.327Z,41.41
2023-04-27T11:10:54.910Z,41.17
2023-04-27T11:13:25.575Z,41.91
2023-04-27T11:15:56.834Z,40.12
2023-04-27T11:18:30.599Z,38.69
2023-04-27T11:21:15.624Z,38.91
2023-04-27T11:23:46.199Z,39.49
2023-04-27T11:26:23.817Z,39.58
2023-04-27T11:29:27.214Z,40.56
2023-04-27T11:31:56.816Z,40.18
2023-04-27T11:34:30.071Z,39.77
2023-04-27T11:37:18.572Z,39.04
2023-04-27T11:39:45.728Z,38.57
2023-04-27T11:42:35.764Z,39.71
2023-04-27T11:45:06.489Z,37.90
2023-04-27T11:47:37.874Z,38.55
2023-04-27T11:50:08.597Z,38.84
2023-04-27T11:52:42.440Z,39.33
2023-04-27T11:55:23.417Z,39.43
2023-04-27T11:58:01.895Z,38.87
2023-04-27T12:00:31.469Z,38.55
2023-04-27T12:02:58.146Z,38.90
2023-04-27T12:05:33.619Z,37.31
2023-04-27T12:08:00.099Z,37.74
2023-04-27T12:10:31.358Z,37.09
2023-04-27T12:13:00.675Z,38.86
2023-04-27T12:15:30.125Z,36.60
2023-04-27T12:17:56.559Z,36.95
2023-04-27T12:20:23.000Z,36.91
2023-04-27T12:22:49.317Z,37.14
2023-04-27T12:25:19.616Z,37.22
2023-04-27T12:27:49.317Z,36.17
2023-04-27T12:32:59.543Z,37.78
2023-04-27T12:35:26.290Z,37.25
2023-04-27T12:37:52.739Z,38.03
2023-04-27T12:40:19.364Z,37.27
2023-04-27T12:42:48.467Z,37.18
2023-04-27T12:45:17.618Z,37.28
2023-04-27T12:48:01.081Z,37.17
2023-04-27T12:50:34.278Z,38.45
2023-04-27T12:53:03.769Z,36.10
2023-04-27T12:55:34.511Z,35.85
2023-04-27T12:58:04.860Z,35.93
2023-04-27T13:00:34.156Z,36.40
2023-04-27T13:03:07.904Z,35.65
2023-04-27T13:05:34.356Z,36.03
2023-04-27T13:08:05.389Z,35.89
2023-04-27T13:10:31.977Z,36.09
2023-04-27T13:12:59.540Z,35.81
2023-04-27T13:15:28.957Z,35.54
2023-04-27T13:17:59.078Z,36.77
2023-04-27T13:23:14.591Z,35.37
2023-04-27T13:25:44.728Z,35.35
2023-04-27T13:28:13.628Z,35.68
2023-04-27T13:30:42.951Z,35.68
2023-04-27T13:35:53.270Z,35.08
2023-04-27T13:38:22.425Z,36.51
2023-04-27T13:40:48.891Z,36.03
2023-04-27T13:43:15.362Z,35.94
2023-04-27T13:45:42.885Z,35.61
2023-04-27T13:48:16.371Z,36.33
2023-04-27T13:50:48.128Z,35.67
2023-04-27T13:53:17.356Z,35.31
2023-04-27T13:55:44.548Z,35.91
2023-04-27T13:58:13.912Z,36.42
2023-04-27T14:00:40.413Z,36.25
2023-04-27T14:03:16.209Z,35.57
2023-04-27T14:05:48.221Z,34.92
2023-04-27T14:08:19.013Z,35.04
2023-04-27T14:10:49.010Z,34.43
2023-04-27T14:15:58.463Z,34.89
2023-04-27T14:18:32.278Z,34.80
2023-04-27T14:21:00.241Z,35.11
2023-04-27T14:23:36.651Z,35.33
2023-04-27T14:26:10.366Z,34.01
2023-04-27T14:28:36.839Z,34.27
2023-04-27T14:31:03.169Z,34.11
2023-04-27T14:33:51.043Z,34.95
2023-04-27T14:36:21.652Z,35.78
2023-04-27T14:38:48.009Z,35.23
2023-04-27T14:41:17.735Z,35.50
2023-04-27T14:43:48.482Z,34.66
2023-04-27T14:46:21.387Z,35.91
2023-04-27T14:48:48.593Z,35.47
2023-04-27T14:51:15.911Z,35.40
2023-04-27T14:53:51.263Z,35.03
2023-04-27T14:56:17.687Z,35.21
2023-04-27T14:58:44.064Z,35.31
2023-04-27T15:01:11.108Z,35.77
2023-04-27T15:03:41.815Z,35.06
2023-04-27T15:06:11.243Z,35.14
2023-04-27T15:08:40.688Z,34.98
2023-04-27T15:11:07.239Z,34.51
2023-04-27T15:13:36.752Z,35.02
2023-04-27T15:16:04.847Z,35.03
2023-04-27T15:18:39.258Z,34.99
2023-04-27T15:21:08.843Z,35.34
2023-04-27T15:23:39.442Z,35.96
2023-04-27T15:26:09.319Z,35.44
2023-04-27T15:28:36.249Z,35.70
2023-04-27T15:31:05.850Z,35.87
2023-04-27T15:33:35.136Z,35.67
2023-04-27T15:36:02.043Z,35.19
2023-04-27T15:38:31.584Z,35.52
2023-04-27T15:41:01.051Z,36.28
2023-04-27T15:43:29.974Z,35.93
2023-04-27T15:46:03.949Z,36.10
2023-04-27T15:48:30.355Z,36.41
2023-04-27T15:51:09.536Z,37.35
2023-04-27T15:53:48.837Z,36.95
2023-04-27T15:56:21.281Z,36.65
2023-04-27T15:58:47.613Z,36.73
2023-04-27T16:01:13.988Z,37.16
2023-04-27T16:03:40.800Z,36.56
2023-04-27T16:06:07.506Z,37.01
2023-04-27T16:08:33.917Z,37.93
2023-04-27T16:11:00.380Z,38.07
2023-04-27T16:13:31.902Z,38.20
2023-04-27T16:15:58.364Z,37.32
2023-04-27T16:18:24.841Z,37.47
2023-04-27T16:20:51.755Z,38.38
2023-04-27T16:23:20.696Z,38.26
2023-04-27T16:25:47.095Z,38.83
2023-04-27T16:28:15.407Z,38.66
2023-04-27T16:30:41.734Z,39.19
2023-04-27T16:33:08.107Z,38.44
2023-04-27T16:35:34.861Z,38.87
2023-04-27T16:38:01.583Z,38.77
2023-04-27T16:40:30.414Z,39.85
2023-04-27T16:42:56.801Z,39.60
2023-04-27T16:45:29.007Z,39.28
2023-04-27T16:47:59.704Z,39.24
2023-04-27T16:50:26.384Z,39.02
2023-04-27T16:52:54.420Z,39.51
2023-04-27T16:55:21.142Z,39.29
2023-04-27T16:57:47.655Z,40.24
2023-04-27T17:00:18.526Z,40.83
2023-04-27T17:02:45.093Z,40.29
2023-04-27T17:05:12.713Z,40.77
2023-04-27T17:07:42.854Z,41.08
2023-04-27T17:10:09.516Z,41.05
2023-04-27T17:12:39.498Z,41.96
2023-04-27T17:15:12.234Z,41.67
2023-04-27T17:17:38.706Z,41.45
2023-04-27T17:20:09.544Z,41.69
2023-04-27T17:22:36.563Z,42.13
2023-04-27T17:25:03.990Z,41.65
2023-04-27T17:27:33.725Z,41.74
2023-04-27T17:30:00.553Z,41.92
2023-04-27T17:32:26.906Z,41.97
2023-04-27T17:34:57.458Z,42.72
2023-04-27T17:37:26.578Z,41.81
2023-04-27T17:39:54.707Z,42.70
2023-04-27T17:42:26.258Z,43.05
2023-04-27T17:44:52.713Z,43.50
2023-04-27T17:47:25.124Z,43.29
2023-04-27T17:49:51.469Z,43.09
2023-04-27T17:52:17.830Z,43.27
2023-04-27T17:54:52.962Z,43.96
2023-04-27T17:57:19.362Z,43.79
2023-04-27T18:05:14.018Z,44.45
2023-04-27T18:07:43.471Z,44.54
2023-04-27T18:10:17.408Z,44.88
2023-04-27T18:12:46.771Z,45.25
2023-04-27T18:15:17.934Z,45.37
2023-04-27T18:17:48.852Z,45.64
2023-04-27T18:20:15.976Z,45.50
2023-04-27T18:22:44.932Z,45.89
2023-04-27T18:25:13.202Z,45.86
2023-04-27T18:27:39.627Z,45.82
2023-04-27T18:30:09.445Z,45.95
2023-04-27T18:32:36.018Z,45.75
2023-04-27T18:35:02.929Z,45.71
2023-04-27T18:37:31.645Z,46.07
2023-04-27T18:40:01.016Z,46.36
2023-04-27T18:42:27.434Z,46.49
2023-04-27T18:45:00.439Z,46.35
2023-04-27T18:47:28.115Z,46.82
2023-04-27T18:49:59.600Z,46.69
2023-04-27T18:52:28.771Z,46.82
2023-04-27T18:54:55.281Z,46.93
2023-04-27T18:57:44.764Z,47.19
2023-04-27T19:00:14.968Z,47.57
2023-04-27T19:02:47.737Z,47.74
2023-04-27T19:05:19.227Z,47.67
2023-04-27T19:07:50.946Z,48.08
2023-04-27T19:10:17.448Z,48.36
2023-04-27T19:12:43.775Z,48.10
2023-04-27T19:15:13.965Z,48.10
2023-04-27T19:17:43.505Z,48.12
2023-04-27T19:20:18.642Z,48.67
2023-04-27T19:22:45.094Z,48.39
2023-04-27T19:25:11.638Z,48.24
2023-04-27T19:27:42.059Z,48.67
2023-04-27T19:30:11.455Z,48.72
2023-04-27T19:32:43.702Z,48.44
2023-04-27T19:35:13.746Z,48.72
2023-04-27T19:37:42.723Z,48.61
2023-04-27T19:40:16.324Z,48.80
2023-04-27T19:42:42.760Z,49.00
2023-04-27T19:45:13.365Z,48.72
2023-04-27T19:47:43.692Z,49.03
2023-04-27T19:50:21.117Z,49.02
2023-04-27T19:52:47.461Z,49.30
2023-04-27T19:58:08.071Z,49.22
2023-04-27T20:00:35.745Z,49.40
2023-04-27T20:03:08.763Z,49.53
2023-04-27T20:05:41.378Z,49.43
2023-04-27T20:08:11.476Z,49.34
2023-04-27T20:10:37.840Z,49.34
2023-04-27T20:13:07.464Z,49.34
2023-04-27T20:15:37.675Z,49.46
2023-04-27T20:18:07.110Z,49.44
2023-04-27T20:20:36.290Z,49.14
2023-04-27T20:23:02.733Z,49.48
2023-04-27T20:25:50.221Z,49.41
2023-04-27T20:28:22.695Z,49.43
2023-04-27T20:30:49.126Z,49.36
2023-04-27T20:33:15.671Z,49.45
2023-04-27T20:35:45.013Z,49.42
2023-04-27T20:38:12.315Z,49.42
2023-04-27T20:40:44.326Z,49.59
2023-04-27T20:43:10.805Z,49.66
2023-04-27T20:45:37.200Z,49.84
2023-04-27T20:48:09.297Z,50.22
2023-04-27T20:50:39.602Z,50.12
2023-04-27T20:53:09.269Z,50.17
2023-04-27T20:55:38.557Z,50.29
2023-04-27T20:58:04.975Z,50.55
2023-04-27T21:00:36.658Z,50.65
2023-04-27T21:03:07.225Z,50.94
2023-04-27T21:05:44.529Z,51.04
2023-04-27T21:08:11.318Z,51.11
2023-04-27T21:10:39.277Z,51.34
2023-04-27T21:13:08.864Z,51.17
2023-04-27T21:15:35.681Z,51.93
2023-04-27T21:18:22.466Z,52.00
2023-04-27T21:20:55.963Z,51.92
2023-04-27T21:23:22.917Z,52.26
2023-04-27T21:25:50.384Z,52.63
2023-04-27T21:28:16.716Z,52.55
2023-04-27T21:30:43.101Z,52.65
2023-04-27T21:33:12.627Z,52.98
2023-04-27T21:35:42.203Z,53.19
2023-04-27T21:38:11.509Z,53.31
2023-04-27T21:40:38.357Z,53.26
2023-04-27T21:43:06.169Z,53.43
2023-04-27T21:45:32.872Z,53.47
2023-04-27T21:48:00.027Z,53.75
2023-04-27T21:50:29.660Z,53.90
2023-04-27T21:52:56.298Z,54.06
2023-04-27T21:55:32.619Z,54.29
2023-04-27T21:57:59.788Z,54.20
2023-04-27T22:00:29.660Z,54.69
2023-04-27T22:02:56.753Z,54.25
2023-04-27T22:05:25.979Z,54.68
2023-04-27T22:07:58.796Z,54.82
2023-04-27T22:10:25.520Z,54.71
2023-04-27T22:13:17.594Z,54.59
2023-04-27T22:15:48.280Z,54.86
2023-04-27T22:18:18.905Z,54.91
2023-04-27T22:20:48.461Z,54.87
2023-04-27T22:23:23.552Z,54.88
2023-04-27T22:25:50.197Z,55.11
2023-04-27T22:28:24.785Z,54.72
2023-04-27T22:30:52.611Z,54.81
2023-04-27T22:33:19.269Z,55.16
2023-04-27T22:35:55.088Z,55.10
2023-04-27T22:38:21.849Z,55.16
2023-04-27T22:40:54.033Z,55.37
2023-04-27T22:43:24.106Z,55.37
2023-04-27T22:45:55.607Z,55.38
2023-04-27T22:48:22.048Z,55.40
2023-04-27T22:50:48.430Z,55.55
2023-04-27T22:53:18.955Z,55.43
2023-04-27T22:55:48.420Z,55.25
2023-04-27T22:58:22.248Z,55.63
2023-04-27T23:00:51.387Z,56.08
2023-04-27T23:03:25.187Z,55.90
2023-04-27T23:05:54.822Z,56.01
2023-04-27T23:08:27.453Z,56.07
2023-04-27T23:10:56.831Z,56.41
2023-04-27T23:13:30.844Z,56.11
2023-04-27T23:16:00.060Z,56.22
2023-04-27T23:18:33.808Z,56.19
2023-04-27T23:21:03.428Z,56.42
2023-04-27T23:23:29.969Z,56.42
2023-04-27T23:25:57.687Z,56.25
2023-04-27T23:28:27.019Z,56.73
2023-04-27T23:31:02.065Z,56.67
2023-04-27T23:33:29.014Z,56.69
2023-04-27T23:35:56.235Z,56.53
2023-04-27T23:38:26.322Z,56.75
2023-04-27T23:40:52.734Z,57.04
2023-04-27T23:43:19.217Z,56.56
2023-04-27T23:45:55.801Z,56.71
2023-04-27T23:48:22.177Z,56.75
2023-04-27T23:50:49.154Z,56.63
2023-04-27T23:53:22.856Z,57.01
2023-04-27T23:55:52.304Z,56.87
2023-04-27T23:58:22.794Z,56.67
